createdAt,value
2022-12-11T00:01:59.882Z,16.25
2022-12-11T00:04:30.846Z,15.73
2022-12-11T00:07:01.107Z,15.48
2022-12-11T00:09:31.907Z,17.63
2022-12-11T00:12:03.431Z,17.88
2022-12-11T00:14:34.027Z,16.98
2022-12-11T00:17:05.545Z,16.08
2022-12-11T00:19:36.139Z,16.25
2022-12-11T00:22:09.547Z,15.30
2022-12-11T00:24:40.052Z,17.83
2022-12-11T00:27:10.586Z,17.83
2022-12-11T00:29:41.219Z,17.92
2022-12-11T00:32:11.546Z,14.07
2022-12-11T00:34:42.277Z,15.27
2022-12-11T00:37:12.826Z,18.45
2022-12-11T00:39:43.611Z,14.68
2022-12-11T00:42:14.713Z,17.33
2022-12-11T00:44:45.050Z,21.65
2022-12-11T00:47:16.404Z,12.90
2022-12-11T00:49:49.999Z,15.02
2022-12-11T00:52:20.770Z,13.25
2022-12-11T00:54:52.160Z,14.65
2022-12-11T00:57:22.768Z,14.90
2022-12-11T00:59:52.952Z,13.43
2022-12-11T01:02:24.085Z,15.82
2022-12-11T01:04:54.847Z,16.50
2022-12-11T01:07:26.265Z,13.90
2022-12-11T01:10:14.953Z,14.68
2022-12-11T01:12:45.212Z,15.07
2022-12-11T01:15:15.843Z,13.98
2022-12-11T01:17:46.339Z,17.15
2022-12-11T01:20:18.249Z,15.82
2022-12-11T01:22:48.744Z,15.48
2022-12-11T01:25:19.677Z,14.93
2022-12-11T01:27:52.838Z,15.82
2022-12-11T01:30:26.018Z,17.05
2022-12-11T01:32:57.802Z,16.67
2022-12-11T01:35:29.085Z,17.35
2022-12-11T01:38:00.267Z,25.63
2022-12-11T01:40:30.779Z,19.13
2022-12-11T01:43:01.776Z,16.60
2022-12-11T01:45:33.753Z,16.60
2022-12-11T01:48:11.853Z,15.63
2022-12-11T01:50:58.361Z,16.52
2022-12-11T01:53:38.727Z,14.88
2022-12-11T01:56:10.319Z,16.60
2022-12-11T01:58:49.108Z,15.95
2022-12-11T02:01:48.050Z,16.63
2022-12-11T02:04:20.969Z,18.80
2022-12-11T02:06:53.579Z,16.77
2022-12-11T02:09:28.960Z,18.70
2022-12-11T02:12:25.441Z,18.63
2022-12-11T02:14:58.454Z,17.85
2022-12-11T02:18:06.274Z,18.23
2022-12-11T02:20:39.854Z,17.13
2022-12-11T02:23:54.330Z,16.77
2022-12-11T02:26:48.738Z,15.73
2022-12-11T02:29:24.748Z,17.10
2022-12-11T02:32:04.845Z,16.42
2022-12-11T02:35:04.451Z,14.30
2022-12-11T02:37:38.447Z,14.75
2022-12-11T02:40:11.912Z,13.93
2022-12-11T02:42:44.484Z,15.55
2022-12-11T02:45:16.432Z,15.00
2022-12-11T02:47:49.419Z,15.45
2022-12-11T02:50:21.853Z,18.17
2022-12-11T02:52:56.708Z,14.68
2022-12-11T02:55:28.739Z,15.20
2022-12-11T02:58:17.925Z,14.38
2022-12-11T03:00:48.829Z,14.75
2022-12-11T03:03:19.264Z,13.65
2022-12-11T03:05:49.836Z,13.82
2022-12-11T03:08:21.069Z,14.68
2022-12-11T03:10:53.103Z,16.17
2022-12-11T03:13:24.468Z,15.40
2022-12-11T03:16:24.198Z,15.05
2022-12-11T03:19:49.977Z,16.10
2022-12-11T03:22:40.949Z,15.48
2022-12-11T03:25:25.140Z,17.42
2022-12-11T03:28:11.858Z,15.35
2022-12-11T03:30:43.201Z,14.65
2022-12-11T03:33:20.004Z,15.50
2022-12-11T03:35:55.701Z,17.02
2022-12-11T03:38:33.075Z,16.88
2022-12-11T03:41:05.324Z,16.63
2022-12-11T03:43:36.474Z,15.35
2022-12-11T03:46:07.927Z,13.38
2022-12-11T03:48:42.683Z,13.55
2022-12-11T03:51:13.015Z,13.07
2022-12-11T03:53:43.226Z,14.45
2022-12-11T03:56:15.045Z,18.23
2022-12-11T03:58:45.563Z,15.05
2022-12-11T04:01:16.446Z,13.68
2022-12-11T04:03:47.006Z,11.75
2022-12-11T04:06:17.742Z,11.27
2022-12-11T04:08:49.265Z,10.40
2022-12-11T04:11:35.576Z,10.38
2022-12-11T04:14:27.088Z,10.32
2022-12-11T04:16:58.341Z,9.60
2022-12-11T04:19:47.569Z,10.35
2022-12-11T04:22:38.322Z,9.82
2022-12-11T04:25:10.312Z,11.27
2022-12-11T04:27:50.217Z,10.70
2022-12-11T04:30:26.071Z,11.32
2022-12-11T04:33:00.330Z,12.43
2022-12-11T04:35:33.497Z,11.15
2022-12-11T04:38:04.411Z,10.27
2022-12-11T04:40:34.807Z,12.30
2022-12-11T04:43:05.908Z,15.55
2022-12-11T04:45:36.263Z,10.18
2022-12-11T04:48:06.994Z,10.38
2022-12-11T04:50:37.921Z,11.77
2022-12-11T04:53:08.497Z,10.20
2022-12-11T04:55:40.888Z,10.68
2022-12-11T04:58:11.110Z,9.20
2022-12-11T05:00:43.137Z,9.63
2022-12-11T05:03:14.118Z,9.85
2022-12-11T05:05:53.048Z,10.98
2022-12-11T05:08:23.983Z,9.50
2022-12-11T05:11:00.944Z,9.20
2022-12-11T05:13:32.852Z,8.32
2022-12-11T05:16:06.735Z,8.93
2022-12-11T05:18:37.361Z,7.78
2022-12-11T05:21:12.808Z,8.15
2022-12-11T05:23:43.977Z,9.05
2022-12-11T05:26:19.559Z,9.10
2022-12-11T05:28:55.127Z,10.15
2022-12-11T05:31:28.032Z,10.50
2022-12-11T05:33:58.661Z,10.20
2022-12-11T05:36:31.440Z,11.00
2022-12-11T05:39:02.611Z,13.07
2022-12-11T05:41:35.430Z,14.25
2022-12-11T05:44:05.741Z,14.13
2022-12-11T05:46:36.715Z,15.35
2022-12-11T05:49:07.315Z,15.52
2022-12-11T05:51:37.680Z,14.55
2022-12-11T05:54:08.598Z,14.48
2022-12-11T05:56:39.362Z,14.45
2022-12-11T05:59:10.809Z,14.82
2022-12-11T06:01:43.789Z,16.17
2022-12-11T06:04:14.924Z,14.93
2022-12-11T06:06:45.868Z,14.50
2022-12-11T06:09:17.478Z,12.52
2022-12-11T06:11:48.069Z,12.82
2022-12-11T06:14:18.307Z,13.82
2022-12-11T06:16:49.151Z,14.27
2022-12-11T06:19:19.842Z,13.88
2022-12-11T06:21:51.611Z,15.88
2022-12-11T06:24:22.038Z,14.50
2022-12-11T06:26:52.563Z,14.48
2022-12-11T06:29:23.416Z,13.32
2022-12-11T06:31:53.804Z,13.45
2022-12-11T06:34:24.418Z,13.95
2022-12-11T06:36:55.229Z,14.10
2022-12-11T06:39:25.743Z,14.40
2022-12-11T06:41:56.758Z,15.10
2022-12-11T06:44:27.347Z,14.88
2022-12-11T06:46:57.702Z,15.40
2022-12-11T06:49:28.506Z,15.05
2022-12-11T06:51:59.596Z,14.43
2022-12-11T06:54:29.975Z,14.30
2022-12-11T06:57:00.613Z,14.23
2022-12-11T06:59:31.241Z,14.93
2022-12-11T07:02:01.618Z,13.93
2022-12-11T07:04:32.370Z,13.43
2022-12-11T07:07:02.701Z,13.75
2022-12-11T07:09:33.024Z,13.63
2022-12-11T07:12:05.078Z,15.10
2022-12-11T07:14:35.946Z,13.88
2022-12-11T07:17:07.131Z,14.55
2022-12-11T07:19:39.195Z,14.88
2022-12-11T07:22:09.780Z,13.70
2022-12-11T07:24:41.126Z,13.80
2022-12-11T07:27:13.799Z,13.80
2022-12-11T07:29:44.153Z,13.77
2022-12-11T07:32:15.555Z,13.65
2022-12-11T07:34:51.560Z,13.15
2022-12-11T07:37:22.961Z,13.27
2022-12-11T07:39:54.290Z,12.63
2022-12-11T07:42:25.409Z,12.05
2022-12-11T07:44:55.844Z,12.63
2022-12-11T07:47:26.363Z,14.18
2022-12-11T07:49:57.432Z,14.23
2022-12-11T07:52:28.285Z,15.52
2022-12-11T07:54:58.574Z,15.93
2022-12-11T07:57:40.023Z,15.43
2022-12-11T08:00:12.672Z,15.35
2022-12-11T08:02:45.421Z,14.68
2022-12-11T08:05:16.720Z,15.60
2022-12-11T08:07:47.968Z,15.48
2022-12-11T08:10:19.208Z,15.50
2022-12-11T08:12:49.736Z,15.65
2022-12-11T08:15:20.284Z,16.38
2022-12-11T08:17:50.832Z,16.52
2022-12-11T08:20:21.409Z,15.07
2022-12-11T08:22:56.031Z,15.77
2022-12-11T08:25:30.245Z,17.35
2022-12-11T08:28:00.364Z,17.65
2022-12-11T08:30:31.336Z,17.80
2022-12-11T08:33:01.689Z,17.75
2022-12-11T08:35:32.304Z,20.00
2022-12-11T08:38:03.719Z,20.75
2022-12-11T08:40:34.696Z,18.05
2022-12-11T08:43:05.249Z,19.27
2022-12-11T08:45:37.191Z,17.48
2022-12-11T08:48:09.024Z,18.02
2022-12-11T08:50:40.476Z,18.88
2022-12-11T08:53:11.044Z,20.33
2022-12-11T08:55:41.825Z,19.48
2022-12-11T08:58:12.519Z,18.42
2022-12-11T09:00:43.703Z,19.87
2022-12-11T09:03:14.411Z,19.15
2022-12-11T09:05:45.168Z,17.70
2022-12-11T09:08:15.783Z,20.02
2022-12-11T09:10:48.936Z,20.08
2022-12-11T09:13:19.321Z,21.05
2022-12-11T09:15:49.829Z,22.67
2022-12-11T09:18:22.483Z,19.55
2022-12-11T09:21:07.872Z,20.55
2022-12-11T09:23:39.530Z,16.73
2022-12-11T09:26:13.062Z,18.77
2022-12-11T09:28:47.043Z,20.15
2022-12-11T09:31:20.468Z,19.02
2022-12-11T09:33:51.665Z,17.52
2022-12-11T09:36:25.116Z,17.50
2022-12-11T09:38:55.662Z,17.63
2022-12-11T09:42:07.755Z,18.83
2022-12-11T09:44:48.993Z,21.52
2022-12-11T09:47:51.180Z,20.70
2022-12-11T09:50:27.215Z,20.13
2022-12-11T09:53:34.081Z,22.95
2022-12-11T09:56:11.574Z,23.15
2022-12-11T09:58:54.025Z,23.58
2022-12-11T10:01:41.690Z,24.45
2022-12-11T10:04:12.357Z,24.52
2022-12-11T10:07:21.131Z,26.80
2022-12-11T10:09:57.312Z,31.50
2022-12-11T10:12:51.085Z,38.60
2022-12-11T10:15:31.777Z,27.23
2022-12-11T10:18:05.117Z,24.42
2022-12-11T10:20:40.154Z,28.00
2022-12-11T10:23:20.047Z,24.92
2022-12-11T10:25:58.624Z,26.25
2022-12-11T10:28:30.036Z,25.15
2022-12-11T10:31:07.599Z,27.55
2022-12-11T10:33:57.746Z,27.48
2022-12-11T10:36:37.221Z,25.40
2022-12-11T10:39:20.324Z,27.95
2022-12-11T10:41:55.459Z,27.23
2022-12-11T10:44:29.231Z,27.52
2022-12-11T10:47:13.853Z,24.63
2022-12-11T10:49:56.984Z,25.20
2022-12-11T10:52:30.602Z,25.00
2022-12-11T10:55:19.431Z,29.25
2022-12-11T10:58:00.475Z,32.90
2022-12-11T11:00:38.060Z,30.50
2022-12-11T11:03:27.570Z,28.65
2022-12-11T11:06:28.089Z,45.08
2022-12-11T11:08:59.957Z,40.88
2022-12-11T11:11:39.350Z,45.53
2022-12-11T11:14:21.517Z,33.67
2022-12-11T11:16:57.214Z,29.67
2022-12-11T11:19:38.262Z,24.88
2022-12-11T11:22:14.352Z,26.63
2022-12-11T11:24:55.986Z,24.98
2022-12-11T11:27:37.377Z,27.70
2022-12-11T11:30:20.065Z,27.63
2022-12-11T11:32:56.307Z,30.00
2022-12-11T11:35:28.985Z,30.55
2022-12-11T11:38:33.195Z,28.90
2022-12-11T11:41:13.169Z,28.98
2022-12-11T11:43:54.892Z,35.25
2022-12-11T11:46:44.149Z,33.22
2022-12-11T11:50:04.318Z,31.85
2022-12-11T11:52:52.441Z,33.80
2022-12-11T11:55:54.450Z,35.75
2022-12-11T11:58:29.539Z,34.35
2022-12-11T12:01:00.207Z,35.17
2022-12-11T12:03:31.309Z,36.45
2022-12-11T12:06:26.331Z,41.95
2022-12-11T12:09:29.445Z,38.13
2022-12-11T12:12:19.392Z,40.28
2022-12-11T12:14:59.334Z,47.08
2022-12-11T12:17:37.124Z,42.72
2022-12-11T12:20:15.830Z,37.38
2022-12-11T12:23:04.346Z,40.45
2022-12-11T12:25:45.773Z,41.67
2022-12-11T12:28:24.144Z,40.75
2022-12-11T12:31:03.225Z,42.55
2022-12-11T12:33:39.755Z,42.42
2022-12-11T12:36:18.466Z,41.38
2022-12-11T12:38:51.819Z,44.50
2022-12-11T12:41:37.418Z,51.30
2022-12-11T12:44:20.668Z,45.58
2022-12-11T12:46:57.956Z,45.38
2022-12-11T12:49:46.710Z,44.47
2022-12-11T12:52:34.016Z,41.25
2022-12-11T12:55:30.426Z,39.40
2022-12-11T12:58:06.702Z,36.00
2022-12-11T13:00:44.458Z,37.53
2022-12-11T13:03:31.350Z,37.67
2022-12-11T13:06:06.855Z,40.47
2022-12-11T13:08:55.735Z,44.25
2022-12-11T13:11:36.250Z,40.78
2022-12-11T13:14:07.231Z,37.40
2022-12-11T13:16:42.579Z,36.38
2022-12-11T13:19:42.549Z,36.47
2022-12-11T13:22:16.318Z,36.88
2022-12-11T13:25:03.265Z,36.38
2022-12-11T13:27:39.109Z,36.65
2022-12-11T13:30:27.916Z,36.22
2022-12-11T13:33:19.783Z,34.80
2022-12-11T13:36:16.692Z,33.92
2022-12-11T13:38:57.312Z,33.60
2022-12-11T13:41:28.964Z,32.80
2022-12-11T13:43:59.846Z,33.33
2022-12-11T13:46:33.526Z,30.58
2022-12-11T13:49:07.831Z,29.92
2022-12-11T13:51:55.135Z,30.33
2022-12-11T13:54:26.177Z,28.52
2022-12-11T13:57:04.459Z,26.92
2022-12-11T13:59:40.017Z,28.80
2022-12-11T14:02:28.270Z,26.73
2022-12-11T14:05:02.559Z,27.85
2022-12-11T14:07:35.114Z,26.88
2022-12-11T14:10:10.682Z,28.95
2022-12-11T14:12:49.042Z,29.48
2022-12-11T14:15:20.060Z,35.67
2022-12-11T14:17:52.119Z,33.20
2022-12-11T14:20:25.736Z,30.00
2022-12-11T14:23:28.933Z,28.98
2022-12-11T14:26:14.754Z,28.85
2022-12-11T14:28:45.745Z,27.83
2022-12-11T14:31:20.118Z,31.45
2022-12-11T14:34:03.106Z,30.70
2022-12-11T14:36:34.732Z,28.15
2022-12-11T14:39:28.663Z,29.48
2022-12-11T14:42:16.735Z,31.15
2022-12-11T14:44:56.574Z,30.63
2022-12-11T14:47:32.411Z,30.42
2022-12-11T14:50:36.888Z,29.88
2022-12-11T14:53:15.489Z,29.27
2022-12-11T14:55:47.007Z,29.80
2022-12-11T14:58:23.164Z,28.08
2022-12-11T15:01:06.135Z,30.30
2022-12-11T15:03:39.029Z,29.27
2022-12-11T15:06:45.706Z,30.42
2022-12-11T15:09:30.438Z,30.70
2022-12-11T15:12:11.705Z,30.15
2022-12-11T15:14:52.538Z,29.90
2022-12-11T15:17:24.924Z,29.40
2022-12-11T15:19:59.063Z,28.25
2022-12-11T15:22:34.256Z,29.42
2022-12-11T15:25:04.781Z,28.33
2022-12-11T15:27:37.779Z,29.38
2022-12-11T15:30:29.412Z,29.75
2022-12-11T15:33:12.226Z,28.52
2022-12-11T15:36:02.432Z,29.92
2022-12-11T15:38:38.627Z,28.55
2022-12-11T15:41:15.148Z,28.80
2022-12-11T15:43:46.307Z,26.58
2022-12-11T15:46:17.119Z,26.13
2022-12-11T15:48:48.764Z,24.05
2022-12-11T15:51:19.651Z,23.88
2022-12-11T15:53:50.093Z,24.25
2022-12-11T15:56:20.705Z,26.15
2022-12-11T15:58:51.238Z,25.25
2022-12-11T16:01:22.149Z,26.27
2022-12-11T16:03:52.443Z,27.98
2022-12-11T16:06:22.842Z,27.30
2022-12-11T16:08:53.066Z,26.58
2022-12-11T16:11:23.390Z,27.75
2022-12-11T16:13:54.189Z,25.70
2022-12-11T16:16:24.670Z,23.20
2022-12-11T16:18:55.787Z,23.35
2022-12-11T16:21:26.268Z,25.55
2022-12-11T16:23:57.120Z,25.02
2022-12-11T16:26:28.104Z,24.60
2022-12-11T16:28:58.596Z,23.27
2022-12-11T16:31:29.825Z,22.05
2022-12-11T16:34:00.648Z,20.83
2022-12-11T16:36:30.916Z,20.85
2022-12-11T16:39:01.712Z,21.42
2022-12-11T16:41:32.230Z,21.50
2022-12-11T16:44:04.517Z,21.20
2022-12-11T16:46:35.755Z,18.90
2022-12-11T16:49:06.668Z,20.42
2022-12-11T16:51:37.318Z,19.92
2022-12-11T16:54:07.925Z,18.90
2022-12-11T16:56:39.462Z,17.88
2022-12-11T16:59:13.829Z,18.80
2022-12-11T17:01:45.904Z,18.95
2022-12-11T17:04:19.035Z,20.42
2022-12-11T17:06:58.513Z,20.45
2022-12-11T17:09:31.750Z,18.60
2022-12-11T17:12:02.015Z,18.63
2022-12-11T17:14:32.615Z,17.30
2022-12-11T17:17:04.671Z,16.80
2022-12-11T17:19:37.454Z,16.98
2022-12-11T17:22:08.689Z,17.55
2022-12-11T17:24:39.327Z,16.42
2022-12-11T17:27:09.905Z,15.70
2022-12-11T17:29:40.502Z,13.50
2022-12-11T17:32:11.473Z,13.65
2022-12-11T17:34:42.283Z,13.02
2022-12-11T17:37:13.254Z,12.25
2022-12-11T17:39:43.778Z,12.23
2022-12-11T17:42:15.359Z,12.35
2022-12-11T17:44:46.510Z,12.60
2022-12-11T17:47:17.052Z,11.43
2022-12-11T17:49:47.301Z,11.90
2022-12-11T17:52:17.836Z,11.80
2022-12-11T17:54:48.472Z,12.18
2022-12-11T17:57:19.261Z,11.43
2022-12-11T17:59:59.172Z,10.70
2022-12-11T18:02:29.997Z,11.30
2022-12-11T18:05:00.576Z,10.88
2022-12-11T18:07:30.821Z,10.50
2022-12-11T18:10:01.398Z,12.15
2022-12-11T18:12:32.011Z,11.52
2022-12-11T18:15:03.549Z,11.40
2022-12-11T18:17:34.584Z,11.35
2022-12-11T18:20:09.475Z,11.35
2022-12-11T18:22:40.086Z,12.25
2022-12-11T18:25:13.476Z,12.77
2022-12-11T18:27:44.418Z,12.68
2022-12-11T18:30:15.487Z,12.85
2022-12-11T18:32:46.513Z,13.18
2022-12-11T18:35:17.204Z,12.52
2022-12-11T18:37:48.189Z,12.45
2022-12-11T18:40:18.967Z,13.15
2022-12-11T18:42:50.520Z,13.93
2022-12-11T18:45:20.995Z,14.90
2022-12-11T18:47:56.580Z,14.52
2022-12-11T18:50:28.915Z,14.75
2022-12-11T18:53:01.279Z,15.07
2022-12-11T18:55:31.833Z,15.35
2022-12-11T18:58:03.035Z,14.68
2022-12-11T19:00:33.508Z,14.02
2022-12-11T19:03:04.066Z,15.27
2022-12-11T19:05:34.885Z,14.63
2022-12-11T19:08:05.638Z,14.25
2022-12-11T19:10:43.762Z,13.77
2022-12-11T19:13:15.631Z,20.05
2022-12-11T19:15:48.233Z,16.58
2022-12-11T19:18:19.180Z,14.15
2022-12-11T19:20:52.376Z,13.98
2022-12-11T19:23:32.691Z,14.25
2022-12-11T19:26:03.425Z,13.88
2022-12-11T19:28:35.386Z,14.40
2022-12-11T19:31:05.812Z,14.35
2022-12-11T19:33:45.604Z,14.80
2022-12-11T19:36:22.421Z,15.48
2022-12-11T19:38:57.894Z,15.00
2022-12-11T19:41:32.621Z,15.30
2022-12-11T19:44:03.304Z,15.70
2022-12-11T19:46:34.176Z,16.10
2022-12-11T19:49:05.367Z,16.88
2022-12-11T19:51:39.443Z,17.50
2022-12-11T19:54:13.195Z,18.90
2022-12-11T19:56:43.796Z,18.42
2022-12-11T19:59:17.675Z,18.25
2022-12-11T20:01:49.213Z,18.25
2022-12-11T20:04:20.921Z,18.25
2022-12-11T20:06:51.684Z,16.85
2022-12-11T20:09:23.136Z,17.52
2022-12-11T20:11:53.593Z,16.10
2022-12-11T20:14:26.349Z,17.23
2022-12-11T20:17:14.357Z,16.83
2022-12-11T20:19:45.397Z,16.70
2022-12-11T20:22:18.848Z,17.95
2022-12-11T20:24:50.065Z,17.30
2022-12-11T20:27:20.575Z,17.00
2022-12-11T20:29:50.854Z,17.70
2022-12-11T20:32:21.547Z,18.80
2022-12-11T20:34:51.891Z,19.00
2022-12-11T20:37:22.702Z,19.02
2022-12-11T20:39:53.458Z,18.92
2022-12-11T20:42:24.688Z,19.50
2022-12-11T20:44:56.497Z,18.33
2022-12-11T20:47:27.256Z,18.00
2022-12-11T20:49:57.567Z,18.13
2022-12-11T20:52:29.040Z,16.38
2022-12-11T20:55:01.589Z,16.52
2022-12-11T20:57:32.027Z,15.40
2022-12-11T21:00:03.679Z,13.90
2022-12-11T21:02:35.003Z,12.52
2022-12-11T21:05:05.709Z,11.25
2022-12-11T21:07:36.205Z,11.30
2022-12-11T21:10:07.807Z,10.48
2022-12-11T21:12:39.166Z,10.23
2022-12-11T21:15:12.725Z,10.43
2022-12-11T21:17:43.372Z,10.25
2022-12-11T21:20:14.041Z,9.48
2022-12-11T21:22:44.800Z,9.65
2022-12-11T21:25:15.184Z,9.65
2022-12-11T21:27:47.861Z,10.65
2022-12-11T21:30:18.264Z,10.27
2022-12-11T21:32:48.920Z,11.30
2022-12-11T21:35:22.703Z,9.95
2022-12-11T21:37:53.651Z,10.43
2022-12-11T21:40:24.412Z,11.30
2022-12-11T21:42:55.169Z,11.43
2022-12-11T21:45:59.306Z,11.45
2022-12-11T21:48:17.069Z,12.73
2022-12-11T21:50:47.616Z,13.02
2022-12-11T21:53:19.089Z,13.73
2022-12-11T21:55:49.926Z,15.13
2022-12-11T21:58:22.340Z,14.82
2022-12-11T22:00:53.263Z,15.73
2022-12-11T22:03:23.638Z,15.73
2022-12-11T22:05:54.200Z,17.40
2022-12-11T22:08:25.179Z,17.42
2022-12-11T22:10:56.607Z,16.60
2022-12-11T22:13:26.907Z,17.08
2022-12-11T22:15:58.576Z,16.40
2022-12-11T22:18:29.557Z,16.85
2022-12-11T22:21:03.201Z,16.83
2022-12-11T22:23:33.477Z,16.08
2022-12-11T22:26:03.882Z,16.45
2022-12-11T22:28:37.037Z,16.90
2022-12-11T22:31:12.523Z,15.70
2022-12-11T22:33:43.080Z,16.40
2022-12-11T22:36:13.400Z,18.27
2022-12-11T22:38:44.402Z,18.40
2022-12-11T22:41:22.201Z,17.95
2022-12-11T22:43:53.186Z,18.17
2022-12-11T22:46:25.763Z,18.35
2022-12-11T22:48:56.869Z,18.65
2022-12-11T22:51:27.232Z,21.55
2022-12-11T22:53:57.771Z,23.27
2022-12-11T22:56:28.758Z,23.55
2022-12-11T22:59:00.195Z,24.25
2022-12-11T23:01:30.947Z,26.15
2022-12-11T23:04:01.281Z,24.20
2022-12-11T23:06:32.190Z,23.67
2022-12-11T23:09:05.949Z,24.30
2022-12-11T23:11:38.747Z,23.63
2022-12-11T23:14:12.544Z,24.58
2022-12-11T23:16:43.612Z,26.30
2022-12-11T23:19:14.934Z,26.25
2022-12-11T23:21:45.592Z,25.20
2022-12-11T23:24:16.308Z,24.83
2022-12-11T23:26:46.934Z,24.83
2022-12-11T23:29:17.247Z,25.13
2022-12-11T23:31:47.756Z,24.50
2022-12-11T23:34:18.417Z,25.67
2022-12-11T23:36:49.070Z,26.80
2022-12-11T23:39:19.627Z,25.77
2022-12-11T23:41:50.791Z,26.88
2022-12-11T23:44:21.563Z,26.25
2022-12-11T23:46:52.469Z,26.25
2022-12-11T23:49:32.945Z,26.85
2022-12-11T23:52:05.181Z,26.27
2022-12-11T23:54:35.799Z,25.70
2022-12-11T23:57:06.227Z,28.30
2022-12-11T23:59:37.976Z,29.55
